sensor_id;sensor_type;location;lat;lon;timestamp;pressure;altitude;pressure_sealevel;temperature;humidity
62055;BME280;48653;51.742;-1.256;2022-07-23T00:00:37;101226.09;;;21.35;47.94
62055;BME280;48653;51.742;-1.256;2022-07-23T00:03:04;101227.75;;;21.72;48.58
62055;BME280;48653;51.742;-1.256;2022-07-23T00:05:31;101230.22;;;21.47;48.09
62055;BME280;48653;51.742;-1.256;2022-07-23T00:08:04;101233.06;;;21.19;48.96
62055;BME280;48653;51.742;-1.256;2022-07-23T00:10:32;101233.25;;;21.21;49.12
62055;BME280;48653;51.742;-1.256;2022-07-23T00:13:05;101229.37;;;21.34;48.92
62055;BME280;48653;51.742;-1.256;2022-07-23T00:15:32;101229.95;;;21.19;48.80
62055;BME280;48653;51.742;-1.256;2022-07-23T00:18:00;101228.16;;;20.84;49.32
62055;BME280;48653;51.742;-1.256;2022-07-23T00:20:27;101228.79;;;21.05;48.57
62055;BME280;48653;51.742;-1.256;2022-07-23T00:22:55;101227.44;;;21.02;48.40
62055;BME280;48653;51.742;-1.256;2022-07-23T00:25:23;101227.68;;;20.80;49.03
62055;BME280;48653;51.742;-1.256;2022-07-23T00:27:51;101227.71;;;20.70;48.29
62055;BME280;48653;51.742;-1.256;2022-07-23T00:30:18;101225.43;;;21.19;48.56
62055;BME280;48653;51.742;-1.256;2022-07-23T00:32:47;101223.80;;;20.66;47.84
62055;BME280;48653;51.742;-1.256;2022-07-23T00:35:15;101223.36;;;20.78;48.74
62055;BME280;48653;51.742;-1.256;2022-07-23T00:37:43;101228.65;;;20.75;48.38
62055;BME280;48653;51.742;-1.256;2022-07-23T00:40:12;101234.19;;;20.90;47.71
62055;BME280;48653;51.742;-1.256;2022-07-23T00:42:39;101232.20;;;20.85;47.66
62055;BME280;48653;51.742;-1.256;2022-07-23T00:45:07;101227.94;;;20.77;48.13
62055;BME280;48653;51.742;-1.256;2022-07-23T00:47:36;101225.60;;;20.95;48.22
62055;BME280;48653;51.742;-1.256;2022-07-23T00:50:04;101224.14;;;20.61;48.15
62055;BME280;48653;51.742;-1.256;2022-07-23T00:52:32;101222.74;;;20.87;47.86
62055;BME280;48653;51.742;-1.256;2022-07-23T00:55:00;101225.93;;;20.90;47.50
62055;BME280;48653;51.742;-1.256;2022-07-23T00:57:27;101229.87;;;20.79;47.63
62055;BME280;48653;51.742;-1.256;2022-07-23T00:59:54;101229.02;;;20.79;47.56
62055;BME280;48653;51.742;-1.256;2022-07-23T01:02:21;101227.35;;;20.65;47.57
62055;BME280;48653;51.742;-1.256;2022-07-23T01:05:32;101223.47;;;20.63;48.08
62055;BME280;48653;51.742;-1.256;2022-07-23T01:08:03;101221.13;;;20.43;48.49
62055;BME280;48653;51.742;-1.256;2022-07-23T01:10:31;101215.98;;;19.85;48.23
62055;BME280;48653;51.742;-1.256;2022-07-23T01:13:03;101213.86;;;20.39;48.50
62055;BME280;48653;51.742;-1.256;2022-07-23T01:15:32;101213.31;;;19.77;48.67
62055;BME280;48653;51.742;-1.256;2022-07-23T01:18:00;101213.03;;;20.19;49.03
62055;BME280;48653;51.742;-1.256;2022-07-23T01:20:27;101214.37;;;20.34;48.31
62055;BME280;48653;51.742;-1.256;2022-07-23T01:22:56;101212.97;;;20.10;48.11
62055;BME280;48653;51.742;-1.256;2022-07-23T01:25:25;101212.63;;;20.46;48.04
62055;BME280;48653;51.742;-1.256;2022-07-23T01:27:55;101210.81;;;20.50;47.66
62055;BME280;48653;51.742;-1.256;2022-07-23T01:30:22;101213.18;;;20.00;48.26
62055;BME280;48653;51.742;-1.256;2022-07-23T01:32:49;101209.03;;;20.32;48.63
62055;BME280;48653;51.742;-1.256;2022-07-23T01:35:17;101210.72;;;20.14;48.36
62055;BME280;48653;51.742;-1.256;2022-07-23T01:37:44;101213.56;;;20.30;48.44
62055;BME280;48653;51.742;-1.256;2022-07-23T01:40:11;101213.37;;;20.19;48.41
62055;BME280;48653;51.742;-1.256;2022-07-23T01:42:39;101214.10;;;20.13;48.21
62055;BME280;48653;51.742;-1.256;2022-07-23T01:45:06;101211.65;;;20.13;48.05
62055;BME280;48653;51.742;-1.256;2022-07-23T01:47:34;101209.50;;;19.96;48.02
62055;BME280;48653;51.742;-1.256;2022-07-23T01:50:02;101210.61;;;19.88;47.81
62055;BME280;48653;51.742;-1.256;2022-07-23T01:52:29;101208.88;;;19.73;47.71
62055;BME280;48653;51.742;-1.256;2022-07-23T01:54:56;101205.12;;;19.93;47.73
62055;BME280;48653;51.742;-1.256;2022-07-23T01:57:23;101203.30;;;19.42;48.06
62055;BME280;48653;51.742;-1.256;2022-07-23T01:59:50;101201.23;;;19.44;47.83
62055;BME280;48653;51.742;-1.256;2022-07-23T02:02:17;101202.53;;;19.33;47.46
62055;BME280;48653;51.742;-1.256;2022-07-23T02:04:45;101200.09;;;19.36;47.93
62055;BME280;48653;51.742;-1.256;2022-07-23T02:07:13;101202.15;;;19.46;48.11
62055;BME280;48653;51.742;-1.256;2022-07-23T02:09:40;101204.74;;;19.16;48.52
62055;BME280;48653;51.742;-1.256;2022-07-23T02:12:09;101205.51;;;18.65;48.54
62055;BME280;48653;51.742;-1.256;2022-07-23T02:14:36;101207.52;;;19.20;47.96
62055;BME280;48653;51.742;-1.256;2022-07-23T02:17:04;101211.53;;;18.63;48.22
62055;BME280;48653;51.742;-1.256;2022-07-23T02:19:32;101212.77;;;19.20;47.85
62055;BME280;48653;51.742;-1.256;2022-07-23T02:21:59;101216.97;;;19.26;47.53
62055;BME280;48653;51.742;-1.256;2022-07-23T02:24:27;101219.58;;;18.92;47.30
62055;BME280;48653;51.742;-1.256;2022-07-23T02:26:54;101222.79;;;19.16;46.77
62055;BME280;48653;51.742;-1.256;2022-07-23T02:29:22;101221.72;;;19.03;47.35
62055;BME280;48653;51.742;-1.256;2022-07-23T02:31:49;101223.27;;;19.04;47.35
62055;BME280;48653;51.742;-1.256;2022-07-23T02:34:16;101219.36;;;18.96;47.73
62055;BME280;48653;51.742;-1.256;2022-07-23T02:36:43;101219.87;;;18.75;47.53
62055;BME280;48653;51.742;-1.256;2022-07-23T02:39:11;101221.96;;;18.90;48.12
62055;BME280;48653;51.742;-1.256;2022-07-23T02:41:38;101222.49;;;18.69;47.70
62055;BME280;48653;51.742;-1.256;2022-07-23T02:44:06;101222.00;;;18.62;47.73
62055;BME280;48653;51.742;-1.256;2022-07-23T02:46:33;101219.85;;;18.61;47.46
62055;BME280;48653;51.742;-1.256;2022-07-23T02:49:00;101220.48;;;18.82;47.50
62055;BME280;48653;51.742;-1.256;2022-07-23T02:51:27;101218.98;;;18.42;47.58
62055;BME280;48653;51.742;-1.256;2022-07-23T02:53:54;101223.14;;;18.33;47.86
62055;BME280;48653;51.742;-1.256;2022-07-23T02:56:21;101220.81;;;18.29;48.20
62055;BME280;48653;51.742;-1.256;2022-07-23T02:58:48;101220.81;;;18.26;48.22
62055;BME280;48653;51.742;-1.256;2022-07-23T03:01:15;101220.83;;;18.28;48.15
62055;BME280;48653;51.742;-1.256;2022-07-23T03:03:43;101221.58;;;18.58;47.30
62055;BME280;48653;51.742;-1.256;2022-07-23T03:06:10;101222.91;;;18.49;48.58
62055;BME280;48653;51.742;-1.256;2022-07-23T03:08:38;101222.59;;;18.31;49.03
62055;BME280;48653;51.742;-1.256;2022-07-23T03:11:06;101224.86;;;18.03;48.92
62055;BME280;48653;51.742;-1.256;2022-07-23T03:13:34;101227.42;;;18.14;49.23
62055;BME280;48653;51.742;-1.256;2022-07-23T03:16:01;101227.22;;;18.15;49.42
62055;BME280;48653;51.742;-1.256;2022-07-23T03:18:28;101231.89;;;18.21;48.83
62055;BME280;48653;51.742;-1.256;2022-07-23T03:20:56;101233.80;;;18.06;49.56
62055;BME280;48653;51.742;-1.256;2022-07-23T03:23:23;101235.16;;;18.05;49.17
62055;BME280;48653;51.742;-1.256;2022-07-23T03:25:51;101235.79;;;18.15;49.02
62055;BME280;48653;51.742;-1.256;2022-07-23T03:28:18;101234.03;;;17.91;49.02
62055;BME280;48653;51.742;-1.256;2022-07-23T03:30:46;101233.89;;;18.42;49.45
62055;BME280;48653;51.742;-1.256;2022-07-23T03:33:15;101236.02;;;18.33;49.28
62055;BME280;48653;51.742;-1.256;2022-07-23T03:35:44;101236.82;;;18.16;49.28
62055;BME280;48653;51.742;-1.256;2022-07-23T03:38:12;101235.09;;;18.30;48.81
62055;BME280;48653;51.742;-1.256;2022-07-23T03:40:39;101242.13;;;18.49;49.00
62055;BME280;48653;51.742;-1.256;2022-07-23T03:43:06;101244.30;;;18.24;49.02
62055;BME280;48653;51.742;-1.256;2022-07-23T03:45:34;101240.84;;;18.17;49.16
62055;BME280;48653;51.742;-1.256;2022-07-23T03:48:03;101237.95;;;18.45;49.14
62055;BME280;48653;51.742;-1.256;2022-07-23T03:50:30;101237.14;;;18.22;49.43
62055;BME280;48653;51.742;-1.256;2022-07-23T03:52:58;101235.83;;;18.20;49.54
62055;BME280;48653;51.742;-1.256;2022-07-23T03:55:26;101229.96;;;18.26;49.37
62055;BME280;48653;51.742;-1.256;2022-07-23T03:57:54;101228.71;;;18.25;49.86
62055;BME280;48653;51.742;-1.256;2022-07-23T04:00:22;101229.14;;;18.27;49.74
62055;BME280;48653;51.742;-1.256;2022-07-23T04:02:51;101225.68;;;18.60;49.23
62055;BME280;48653;51.742;-1.256;2022-07-23T04:05:18;101219.92;;;18.64;49.74
62055;BME280;48653;51.742;-1.256;2022-07-23T04:07:45;101218.31;;;18.30;50.38
62055;BME280;48653;51.742;-1.256;2022-07-23T04:10:14;101222.01;;;18.74;50.36
62055;BME280;48653;51.742;-1.256;2022-07-23T04:12:42;101220.61;;;18.07;50.77
62055;BME280;48653;51.742;-1.256;2022-07-23T04:15:10;101225.87;;;18.20;50.92
62055;BME280;48653;51.742;-1.256;2022-07-23T04:17:37;101226.59;;;18.10;50.95
62055;BME280;48653;51.742;-1.256;2022-07-23T04:20:05;101229.41;;;18.15;51.03
62055;BME280;48653;51.742;-1.256;2022-07-23T04:22:33;101228.63;;;18.16;50.85
62055;BME280;48653;51.742;-1.256;2022-07-23T04:25:01;101227.07;;;18.08;50.92
62055;BME280;48653;51.742;-1.256;2022-07-23T04:27:28;101229.01;;;17.98;51.43
62055;BME280;48653;51.742;-1.256;2022-07-23T04:29:55;101225.34;;;18.20;51.59
62055;BME280;48653;51.742;-1.256;2022-07-23T04:32:23;101229.92;;;18.21;50.95
62055;BME280;48653;51.742;-1.256;2022-07-23T04:34:50;101229.91;;;18.27;51.01
62055;BME280;48653;51.742;-1.256;2022-07-23T04:37:18;101227.31;;;18.36;50.69
62055;BME280;48653;51.742;-1.256;2022-07-23T04:39:45;101227.87;;;18.23;51.19
62055;BME280;48653;51.742;-1.256;2022-07-23T04:42:17;101227.55;;;18.22;50.84
62055;BME280;48653;51.742;-1.256;2022-07-23T04:44:45;101234.85;;;18.16;51.72
62055;BME280;48653;51.742;-1.256;2022-07-23T04:47:12;101237.56;;;18.19;51.16
62055;BME280;48653;51.742;-1.256;2022-07-23T04:49:41;101232.78;;;18.45;51.06
62055;BME280;48653;51.742;-1.256;2022-07-23T04:52:08;101222.46;;;18.70;49.85
62055;BME280;48653;51.742;-1.256;2022-07-23T04:54:35;101220.44;;;18.67;50.19
62055;BME280;48653;51.742;-1.256;2022-07-23T04:57:03;101227.42;;;18.45;50.27
62055;BME280;48653;51.742;-1.256;2022-07-23T04:59:30;101219.17;;;18.38;50.20
62055;BME280;48653;51.742;-1.256;2022-07-23T05:01:57;101216.98;;;18.45;49.93
62055;BME280;48653;51.742;-1.256;2022-07-23T05:04:24;101218.77;;;18.54;50.29
62055;BME280;48653;51.742;-1.256;2022-07-23T05:06:52;101221.90;;;18.64;50.62
62055;BME280;48653;51.742;-1.256;2022-07-23T05:09:20;101224.50;;;18.19;51.10
62055;BME280;48653;51.742;-1.256;2022-07-23T05:11:47;101228.27;;;18.43;51.57
62055;BME280;48653;51.742;-1.256;2022-07-23T05:14:14;101225.68;;;18.49;51.09
62055;BME280;48653;51.742;-1.256;2022-07-23T05:16:42;101226.92;;;18.50;51.00
62055;BME280;48653;51.742;-1.256;2022-07-23T05:19:09;101234.47;;;18.36;51.58
62055;BME280;48653;51.742;-1.256;2022-07-23T05:21:37;101234.37;;;18.36;51.45
62055;BME280;48653;51.742;-1.256;2022-07-23T05:24:05;101238.64;;;18.48;51.62
62055;BME280;48653;51.742;-1.256;2022-07-23T05:26:33;101238.33;;;18.56;51.41
62055;BME280;48653;51.742;-1.256;2022-07-23T05:29:00;101233.50;;;18.49;51.31
62055;BME280;48653;51.742;-1.256;2022-07-23T05:31:27;101238.18;;;18.42;50.52
62055;BME280;48653;51.742;-1.256;2022-07-23T05:33:55;101238.36;;;18.57;50.73
62055;BME280;48653;51.742;-1.256;2022-07-23T05:36:22;101237.09;;;18.65;50.65
62055;BME280;48653;51.742;-1.256;2022-07-23T05:38:50;101238.62;;;18.79;50.68
62055;BME280;48653;51.742;-1.256;2022-07-23T05:41:17;101243.33;;;18.68;50.95
62055;BME280;48653;51.742;-1.256;2022-07-23T05:43:45;101246.12;;;18.62;51.25
62055;BME280;48653;51.742;-1.256;2022-07-23T05:46:12;101244.43;;;18.74;50.74
62055;BME280;48653;51.742;-1.256;2022-07-23T05:49:10;101244.71;;;19.12;50.44
62055;BME280;48653;51.742;-1.256;2022-07-23T05:51:37;101251.84;;;18.43;50.74
62055;BME280;48653;51.742;-1.256;2022-07-23T05:54:05;101258.21;;;18.59;50.38
62055;BME280;48653;51.742;-1.256;2022-07-23T05:56:33;101256.03;;;18.35;50.44
62055;BME280;48653;51.742;-1.256;2022-07-23T05:59:02;101259.62;;;18.89;50.13
62055;BME280;48653;51.742;-1.256;2022-07-23T06:01:34;101259.67;;;18.49;50.42
62055;BME280;48653;51.742;-1.256;2022-07-23T06:04:02;101258.43;;;18.50;50.85
62055;BME280;48653;51.742;-1.256;2022-07-23T06:06:32;101265.54;;;18.56;50.51
62055;BME280;48653;51.742;-1.256;2022-07-23T06:09:00;101266.54;;;18.82;50.63
62055;BME280;48653;51.742;-1.256;2022-07-23T06:11:27;101263.31;;;18.38;50.75
62055;BME280;48653;51.742;-1.256;2022-07-23T06:13:55;101258.90;;;18.29;51.30
62055;BME280;48653;51.742;-1.256;2022-07-23T06:16:22;101257.74;;;18.54;50.79
62055;BME280;48653;51.742;-1.256;2022-07-23T06:18:51;101255.96;;;18.39;51.15
62055;BME280;48653;51.742;-1.256;2022-07-23T06:21:18;101261.46;;;18.41;50.82
62055;BME280;48653;51.742;-1.256;2022-07-23T06:23:45;101256.55;;;18.73;50.37
62055;BME280;48653;51.742;-1.256;2022-07-23T06:26:15;101248.14;;;18.92;50.56
62055;BME280;48653;51.742;-1.256;2022-07-23T06:28:44;101244.60;;;18.22;49.76
62055;BME280;48653;51.742;-1.256;2022-07-23T06:31:22;101246.38;;;18.91;49.54
62055;BME280;48653;51.742;-1.256;2022-07-23T06:34:05;101251.34;;;18.92;49.65
62055;BME280;48653;51.742;-1.256;2022-07-23T06:36:53;101253.49;;;19.15;49.76
62055;BME280;48653;51.742;-1.256;2022-07-23T06:39:22;101252.63;;;18.96;50.25
62055;BME280;48653;51.742;-1.256;2022-07-23T06:41:51;101249.63;;;18.96;49.99
62055;BME280;48653;51.742;-1.256;2022-07-23T06:44:19;101251.07;;;19.30;49.45
62055;BME280;48653;51.742;-1.256;2022-07-23T06:46:47;101253.40;;;19.35;48.90
62055;BME280;48653;51.742;-1.256;2022-07-23T06:51:25;101262.47;;;19.41;49.82
62055;BME280;48653;51.742;-1.256;2022-07-23T06:54:36;101262.63;;;19.21;49.24
62055;BME280;48653;51.742;-1.256;2022-07-23T06:57:20;101263.49;;;19.06;49.31
62055;BME280;48653;51.742;-1.256;2022-07-23T07:00:26;101262.68;;;19.63;49.25
62055;BME280;48653;51.742;-1.256;2022-07-23T07:04:23;101254.16;;;19.89;48.88
62055;BME280;48653;51.742;-1.256;2022-07-23T07:07:02;101251.03;;;19.64;48.64
62055;BME280;48653;51.742;-1.256;2022-07-23T07:10:06;101253.95;;;20.26;48.50
62055;BME280;48653;51.742;-1.256;2022-07-23T07:15:27;101261.90;;;20.28;48.84
62055;BME280;48653;51.742;-1.256;2022-07-23T07:18:26;101264.02;;;20.36;48.31
62055;BME280;48653;51.742;-1.256;2022-07-23T07:21:36;101258.09;;;20.36;47.74
62055;BME280;48653;51.742;-1.256;2022-07-23T07:24:30;101249.03;;;19.98;48.11
62055;BME280;48653;51.742;-1.256;2022-07-23T07:26:57;101246.67;;;19.95;47.85
62055;BME280;48653;51.742;-1.256;2022-07-23T07:29:24;101245.99;;;20.26;47.53
62055;BME280;48653;51.742;-1.256;2022-07-23T07:31:51;101248.22;;;20.03;47.11
62055;BME280;48653;51.742;-1.256;2022-07-23T07:34:18;101248.95;;;20.72;47.32
62055;BME280;48653;51.742;-1.256;2022-07-23T07:36:46;101245.75;;;20.74;46.41
62055;BME280;48653;51.742;-1.256;2022-07-23T07:39:14;101246.57;;;20.66;46.59
62055;BME280;48653;51.742;-1.256;2022-07-23T07:41:47;101253.42;;;20.87;45.59
62055;BME280;48653;51.742;-1.256;2022-07-23T07:44:14;101260.37;;;20.80;45.94
62055;BME280;48653;51.742;-1.256;2022-07-23T07:46:43;101265.66;;;20.70;46.06
62055;BME280;48653;51.742;-1.256;2022-07-23T07:49:10;101261.43;;;21.03;44.99
62055;BME280;48653;51.742;-1.256;2022-07-23T07:51:37;101259.52;;;21.45;45.02
62055;BME280;48653;51.742;-1.256;2022-07-23T07:54:05;101260.51;;;21.05;45.11
62055;BME280;48653;51.742;-1.256;2022-07-23T07:56:32;101262.31;;;21.54;44.26
62055;BME280;48653;51.742;-1.256;2022-07-23T07:59:01;101261.31;;;21.08;44.89
62055;BME280;48653;51.742;-1.256;2022-07-23T08:01:28;101261.12;;;21.20;45.33
62055;BME280;48653;51.742;-1.256;2022-07-23T08:04:46;101260.52;;;21.97;44.87
62055;BME280;48653;51.742;-1.256;2022-07-23T08:07:15;101258.09;;;21.54;44.57
62055;BME280;48653;51.742;-1.256;2022-07-23T08:10:37;101257.94;;;22.35;44.75
62055;BME280;48653;51.742;-1.256;2022-07-23T08:13:15;101260.52;;;22.10;44.30
62055;BME280;48653;51.742;-1.256;2022-07-23T08:15:47;101258.15;;;22.33;42.43
62055;BME280;48653;51.742;-1.256;2022-07-23T08:18:29;101254.46;;;22.33;43.03
62055;BME280;48653;51.742;-1.256;2022-07-23T08:20:57;101255.70;;;22.34;42.74
62055;BME280;48653;51.742;-1.256;2022-07-23T08:23:26;101251.08;;;22.23;42.66
62055;BME280;48653;51.742;-1.256;2022-07-23T08:26:27;101248.60;;;22.62;41.77
62055;BME280;48653;51.742;-1.256;2022-07-23T08:28:55;101251.94;;;22.92;40.88
62055;BME280;48653;51.742;-1.256;2022-07-23T08:31:22;101252.43;;;22.61;40.80
62055;BME280;48653;51.742;-1.256;2022-07-23T08:33:51;101249.29;;;22.82;41.24
62055;BME280;48653;51.742;-1.256;2022-07-23T08:36:19;101249.58;;;23.27;40.66
62055;BME280;48653;51.742;-1.256;2022-07-23T08:38:47;101253.59;;;23.16;40.03
62055;BME280;48653;51.742;-1.256;2022-07-23T08:41:16;101251.92;;;23.43;38.76
62055;BME280;48653;51.742;-1.256;2022-07-23T08:43:44;101247.63;;;23.47;38.35
62055;BME280;48653;51.742;-1.256;2022-07-23T08:46:13;101248.63;;;23.33;37.86
62055;BME280;48653;51.742;-1.256;2022-07-23T08:48:42;101249.22;;;23.48;37.74
62055;BME280;48653;51.742;-1.256;2022-07-23T08:51:11;101260.05;;;23.72;37.74
62055;BME280;48653;51.742;-1.256;2022-07-23T08:53:39;101261.61;;;23.87;37.86
62055;BME280;48653;51.742;-1.256;2022-07-23T08:56:07;101264.42;;;24.09;38.02
62055;BME280;48653;51.742;-1.256;2022-07-23T08:58:36;101257.80;;;24.56;36.72
62055;BME280;48653;51.742;-1.256;2022-07-23T09:01:04;101256.80;;;24.42;37.64
62055;BME280;48653;51.742;-1.256;2022-07-23T09:03:32;101255.17;;;24.87;36.40
62055;BME280;48653;51.742;-1.256;2022-07-23T09:06:07;101257.62;;;24.75;36.81
62055;BME280;48653;51.742;-1.256;2022-07-23T09:08:36;101260.26;;;24.70;36.16
62055;BME280;48653;51.742;-1.256;2022-07-23T09:11:05;101259.84;;;24.80;36.90
62055;BME280;48653;51.742;-1.256;2022-07-23T09:13:35;101259.62;;;24.54;36.67
62055;BME280;48653;51.742;-1.256;2022-07-23T09:16:07;101259.63;;;24.78;35.98
62055;BME280;48653;51.742;-1.256;2022-07-23T09:18:38;101257.61;;;24.46;35.42
62055;BME280;48653;51.742;-1.256;2022-07-23T09:21:07;101248.30;;;24.91;34.80
62055;BME280;48653;51.742;-1.256;2022-07-23T09:23:37;101246.75;;;25.07;33.61
62055;BME280;48653;51.742;-1.256;2022-07-23T09:26:19;101244.02;;;24.91;33.04
62055;BME280;48653;51.742;-1.256;2022-07-23T09:28:51;101252.39;;;25.26;32.75
62055;BME280;48653;51.742;-1.256;2022-07-23T09:31:22;101257.21;;;25.58;32.39
62055;BME280;48653;51.742;-1.256;2022-07-23T09:33:50;101254.52;;;25.68;30.30
62055;BME280;48653;51.742;-1.256;2022-07-23T09:36:27;101257.88;;;25.58;31.30
62055;BME280;48653;51.742;-1.256;2022-07-23T09:38:55;101254.78;;;25.62;31.46
62055;BME280;48653;51.742;-1.256;2022-07-23T09:41:21;101256.26;;;25.72;31.88
62055;BME280;48653;51.742;-1.256;2022-07-23T09:43:55;101255.04;;;25.72;31.14
62055;BME280;48653;51.742;-1.256;2022-07-23T09:46:25;101251.90;;;25.87;31.30
62055;BME280;48653;51.742;-1.256;2022-07-23T09:48:53;101251.17;;;26.03;31.20
62055;BME280;48653;51.742;-1.256;2022-07-23T09:51:20;101250.21;;;26.59;31.36
62055;BME280;48653;51.742;-1.256;2022-07-23T09:53:47;101241.75;;;27.24;29.99
62055;BME280;48653;51.742;-1.256;2022-07-23T09:56:14;101239.60;;;26.89;29.79
62055;BME280;48653;51.742;-1.256;2022-07-23T09:58:42;101243.74;;;27.22;29.26
62055;BME280;48653;51.742;-1.256;2022-07-23T10:01:12;101237.86;;;27.58;28.71
62055;BME280;48653;51.742;-1.256;2022-07-23T10:03:41;101235.17;;;27.83;29.16
62055;BME280;48653;51.742;-1.256;2022-07-23T10:06:09;101229.13;;;27.94;29.52
62055;BME280;48653;51.742;-1.256;2022-07-23T10:08:41;101235.08;;;28.46;29.50
62055;BME280;48653;51.742;-1.256;2022-07-23T10:11:09;101231.06;;;28.90;27.39
62055;BME280;48653;51.742;-1.256;2022-07-23T10:13:37;101226.33;;;29.00;28.33
62055;BME280;48653;51.742;-1.256;2022-07-23T10:16:06;101223.14;;;28.53;28.33
62055;BME280;48653;51.742;-1.256;2022-07-23T10:18:34;101220.24;;;28.88;27.17
62055;BME280;48653;51.742;-1.256;2022-07-23T10:21:07;101225.64;;;29.27;27.89
62055;BME280;48653;51.742;-1.256;2022-07-23T10:23:39;101234.62;;;29.40;27.35
62055;BME280;48653;51.742;-1.256;2022-07-23T10:26:12;101238.73;;;29.31;26.63
62055;BME280;48653;51.742;-1.256;2022-07-23T10:28:49;101235.74;;;29.52;27.16
62055;BME280;48653;51.742;-1.256;2022-07-23T10:31:40;101232.20;;;29.67;27.08
62055;BME280;48653;51.742;-1.256;2022-07-23T10:34:17;101231.88;;;29.94;27.12
62055;BME280;48653;51.742;-1.256;2022-07-23T10:36:51;101233.22;;;29.36;26.77
62055;BME280;48653;51.742;-1.256;2022-07-23T10:39:22;101231.92;;;30.41;27.50
62055;BME280;48653;51.742;-1.256;2022-07-23T10:41:51;101227.44;;;30.01;27.10
62055;BME280;48653;51.742;-1.256;2022-07-23T10:44:20;101220.76;;;30.26;26.75
62055;BME280;48653;51.742;-1.256;2022-07-23T10:46:57;101220.85;;;30.54;26.98
62055;BME280;48653;51.742;-1.256;2022-07-23T10:49:28;101219.57;;;30.33;26.88
62055;BME280;48653;51.742;-1.256;2022-07-23T10:52:28;101215.71;;;30.83;26.76
62055;BME280;48653;51.742;-1.256;2022-07-23T10:55:38;101206.05;;;30.21;26.78
62055;BME280;48653;51.742;-1.256;2022-07-23T10:58:06;101204.16;;;30.56;26.94
62055;BME280;48653;51.742;-1.256;2022-07-23T11:00:35;101203.11;;;31.25;27.12
62055;BME280;48653;51.742;-1.256;2022-07-23T11:03:04;101201.63;;;31.33;26.19
62055;BME280;48653;51.742;-1.256;2022-07-23T11:05:42;101205.63;;;31.68;26.21
62055;BME280;48653;51.742;-1.256;2022-07-23T11:08:13;101198.76;;;32.02;26.32
62055;BME280;48653;51.742;-1.256;2022-07-23T11:10:44;101194.98;;;31.53;26.00
62055;BME280;48653;51.742;-1.256;2022-07-23T11:14:58;101191.05;;;31.20;26.22
62055;BME280;48653;51.742;-1.256;2022-07-23T11:17:26;101188.84;;;30.22;27.02
62055;BME280;48653;51.742;-1.256;2022-07-23T11:20:27;101189.63;;;30.32;27.78
62055;BME280;48653;51.742;-1.256;2022-07-23T11:22:57;101190.92;;;30.32;26.99
62055;BME280;48653;51.742;-1.256;2022-07-23T11:25:36;101179.19;;;30.25;27.27
62055;BME280;48653;51.742;-1.256;2022-07-23T11:28:15;101181.99;;;30.60;27.18
62055;BME280;48653;51.742;-1.256;2022-07-23T11:30:44;101186.80;;;30.53;26.77
62055;BME280;48653;51.742;-1.256;2022-07-23T11:33:21;101186.59;;;30.67;27.24
62055;BME280;48653;51.742;-1.256;2022-07-23T11:36:00;101180.58;;;30.21;26.71
62055;BME280;48653;51.742;-1.256;2022-07-23T11:38:31;101181.41;;;30.59;27.02
62055;BME280;48653;51.742;-1.256;2022-07-23T11:40:58;101183.15;;;30.25;27.24
62055;BME280;48653;51.742;-1.256;2022-07-23T11:43:26;101186.32;;;30.63;27.23
62055;BME280;48653;51.742;-1.256;2022-07-23T11:45:59;101188.10;;;30.36;27.31
62055;BME280;48653;51.742;-1.256;2022-07-23T11:48:28;101192.39;;;29.62;27.35
62055;BME280;48653;51.742;-1.256;2022-07-23T11:50:57;101187.21;;;29.63;27.43
62055;BME280;48653;51.742;-1.256;2022-07-23T11:53:27;101193.08;;;29.74;27.89
62055;BME280;48653;51.742;-1.256;2022-07-23T11:56:04;101190.34;;;29.47;27.97
62055;BME280;48653;51.742;-1.256;2022-07-23T11:58:32;101181.73;;;29.85;27.65
62055;BME280;48653;51.742;-1.256;2022-07-23T12:01:00;101183.06;;;29.76;27.93
62055;BME280;48653;51.742;-1.256;2022-07-23T12:03:28;101179.79;;;29.86;28.01
62055;BME280;48653;51.742;-1.256;2022-07-23T12:05:57;101179.07;;;29.64;28.47
62055;BME280;48653;51.742;-1.256;2022-07-23T12:08:25;101181.60;;;30.81;27.80
62055;BME280;48653;51.742;-1.256;2022-07-23T12:10:52;101182.27;;;30.88;27.53
62055;BME280;48653;51.742;-1.256;2022-07-23T12:13:20;101181.07;;;29.75;28.20
62055;BME280;48653;51.742;-1.256;2022-07-23T12:15:50;101177.06;;;29.25;28.55
62055;BME280;48653;51.742;-1.256;2022-07-23T12:18:21;101176.96;;;28.67;28.85
62055;BME280;48653;51.742;-1.256;2022-07-23T12:20:51;101178.34;;;28.72;28.93
62055;BME280;48653;51.742;-1.256;2022-07-23T12:23:20;101180.87;;;28.66;29.04
62055;BME280;48653;51.742;-1.256;2022-07-23T12:25:49;101188.49;;;28.32;29.22
62055;BME280;48653;51.742;-1.256;2022-07-23T12:28:20;101182.69;;;27.69;30.21
62055;BME280;48653;51.742;-1.256;2022-07-23T12:30:48;101178.21;;;27.73;30.56
62055;BME280;48653;51.742;-1.256;2022-07-23T12:33:22;101182.82;;;27.86;30.76
62055;BME280;48653;51.742;-1.256;2022-07-23T12:35:55;101188.28;;;27.52;30.41
62055;BME280;48653;51.742;-1.256;2022-07-23T12:38:25;101180.71;;;27.48;30.55
62055;BME280;48653;51.742;-1.256;2022-07-23T12:40:56;101177.24;;;27.77;29.96
62055;BME280;48653;51.742;-1.256;2022-07-23T12:43:25;101172.47;;;27.80;30.21
62055;BME280;48653;51.742;-1.256;2022-07-23T12:45:56;101166.68;;;28.40;30.47
62055;BME280;48653;51.742;-1.256;2022-07-23T12:48:26;101163.68;;;28.71;29.51
62055;BME280;48653;51.742;-1.256;2022-07-23T12:50:58;101165.40;;;28.51;29.17
62055;BME280;48653;51.742;-1.256;2022-07-23T12:53:28;101173.48;;;28.05;29.81
62055;BME280;48653;51.742;-1.256;2022-07-23T12:56:00;101178.16;;;27.95;29.71
62055;BME280;48653;51.742;-1.256;2022-07-23T12:58:44;101169.98;;;27.61;30.39
62055;BME280;48653;51.742;-1.256;2022-07-23T13:01:25;101170.84;;;27.86;30.75
62055;BME280;48653;51.742;-1.256;2022-07-23T13:03:58;101173.35;;;28.12;30.59
62055;BME280;48653;51.742;-1.256;2022-07-23T13:06:26;101176.54;;;27.51;30.94